Terminal Aerodrome Forecast
Issued by NWS

Home | Current Version | Previous Version | Text Only | Print | Product List | Glossary On
Versions: 1 2 3 4 5 6 7 8 9 10 11 12 13
000
FTUS45 KRIW 272300
TAFBPI
TAF
KBPI 272329Z 2800/2824 10010KT 5SM -SHRA BR VCTS SCT015 OVC030CB
      TEMPO 2800/2803 VRB10G20KT BKN008CB
     FM280600 VRB06KT 3SM SHRA BR SCT012 OVC025
     FM281800 12008KT 5SM SHRA BR SCT020 OVC035=

USA.gov is the U.S. government's official web portal to all federal, state and local government web resources and services.